sensor_id;sensor_type;location;lat;lon;timestamp;P1;durP1;ratioP1;P2;durP2;ratioP2
63193;SDS011;49289;51.670;5.624;2022-12-20T00:00:07;0.40;;;0.40;;
63193;SDS011;49289;51.670;5.624;2022-12-20T00:01:58;0.40;;;0.40;;
63193;SDS011;49289;51.670;5.624;2022-12-20T00:03:47;0.50;;;0.50;;
63193;SDS011;49289;51.670;5.624;2022-12-20T00:05:33;0.40;;;0.40;;
63193;SDS011;49289;51.670;5.624;2022-12-20T00:07:22;0.40;;;0.40;;
63193;SDS011;49289;51.670;5.624;2022-12-20T00:09:10;0.40;;;0.40;;
63193;SDS011;49289;51.670;5.624;2022-12-20T00:10:58;0.40;;;0.40;;
63193;SDS011;49289;51.670;5.624;2022-12-20T00:12:45;0.30;;;0.30;;
63193;SDS011;49289;51.670;5.624;2022-12-20T00:14:33;0.40;;;0.40;;
63193;SDS011;49289;51.670;5.624;2022-12-20T00:16:22;0.40;;;0.40;;
63193;SDS011;49289;51.670;5.624;2022-12-20T00:18:10;0.30;;;0.30;;
63193;SDS011;49289;51.670;5.624;2022-12-20T00:19:58;0.40;;;0.40;;
63193;SDS011;49289;51.670;5.624;2022-12-20T00:21:46;0.40;;;0.40;;
63193;SDS011;49289;51.670;5.624;2022-12-20T00:23:35;0.40;;;0.40;;
63193;SDS011;49289;51.670;5.624;2022-12-20T00:25:22;0.40;;;0.40;;
63193;SDS011;49289;51.670;5.624;2022-12-20T00:27:11;0.30;;;0.30;;
63193;SDS011;49289;51.670;5.624;2022-12-20T00:28:59;0.40;;;0.40;;
63193;SDS011;49289;51.670;5.624;2022-12-20T00:30:47;0.30;;;0.30;;
63193;SDS011;49289;51.670;5.624;2022-12-20T00:32:38;0.30;;;0.30;;
63193;SDS011;49289;51.670;5.624;2022-12-20T00:34:26;0.30;;;0.30;;
63193;SDS011;49289;51.670;5.624;2022-12-20T00:36:15;0.30;;;0.30;;
63193;SDS011;49289;51.670;5.624;2022-12-20T00:38:03;0.20;;;0.20;;
63193;SDS011;49289;51.670;5.624;2022-12-20T00:39:51;0.30;;;0.30;;
63193;SDS011;49289;51.670;5.624;2022-12-20T00:41:38;0.20;;;0.20;;
63193;SDS011;49289;51.670;5.624;2022-12-20T00:43:25;0.20;;;0.20;;
63193;SDS011;49289;51.670;5.624;2022-12-20T00:45:13;0.20;;;0.20;;
63193;SDS011;49289;51.670;5.624;2022-12-20T00:47:00;0.20;;;0.20;;
63193;SDS011;49289;51.670;5.624;2022-12-20T00:48:49;0.20;;;0.20;;
63193;SDS011;49289;51.670;5.624;2022-12-20T00:50:37;0.20;;;0.20;;
63193;SDS011;49289;51.670;5.624;2022-12-20T00:52:25;0.40;;;0.40;;
63193;SDS011;49289;51.670;5.624;2022-12-20T00:54:15;0.30;;;0.30;;
63193;SDS011;49289;51.670;5.624;2022-12-20T00:56:02;0.30;;;0.30;;
63193;SDS011;49289;51.670;5.624;2022-12-20T00:57:49;0.40;;;0.40;;
63193;SDS011;49289;51.670;5.624;2022-12-20T00:59:37;7.20;;;1.60;;
63193;SDS011;49289;51.670;5.624;2022-12-20T01:01:26;0.40;;;0.40;;
63193;SDS011;49289;51.670;5.624;2022-12-20T01:03:14;0.60;;;0.60;;
63193;SDS011;49289;51.670;5.624;2022-12-20T01:05:02;0.30;;;0.30;;
63193;SDS011;49289;51.670;5.624;2022-12-20T01:06:52;0.40;;;0.40;;
63193;SDS011;49289;51.670;5.624;2022-12-20T01:08:40;0.40;;;0.40;;
63193;SDS011;49289;51.670;5.624;2022-12-20T01:10:27;0.30;;;0.30;;
63193;SDS011;49289;51.670;5.624;2022-12-20T01:12:14;0.30;;;0.30;;
63193;SDS011;49289;51.670;5.624;2022-12-20T01:14:02;0.50;;;0.50;;
63193;SDS011;49289;51.670;5.624;2022-12-20T01:15:49;0.40;;;0.40;;
63193;SDS011;49289;51.670;5.624;2022-12-20T01:17:37;0.30;;;0.30;;
63193;SDS011;49289;51.670;5.624;2022-12-20T01:19:26;0.30;;;0.30;;
63193;SDS011;49289;51.670;5.624;2022-12-20T01:21:15;0.30;;;0.30;;
63193;SDS011;49289;51.670;5.624;2022-12-20T01:23:03;0.30;;;0.30;;
63193;SDS011;49289;51.670;5.624;2022-12-20T01:24:51;0.30;;;0.30;;
63193;SDS011;49289;51.670;5.624;2022-12-20T01:26:40;0.20;;;0.20;;
63193;SDS011;49289;51.670;5.624;2022-12-20T01:28:28;0.30;;;0.30;;
63193;SDS011;49289;51.670;5.624;2022-12-20T01:30:16;0.30;;;0.30;;
63193;SDS011;49289;51.670;5.624;2022-12-20T01:32:04;0.40;;;0.40;;
63193;SDS011;49289;51.670;5.624;2022-12-20T01:33:52;0.40;;;0.40;;
63193;SDS011;49289;51.670;5.624;2022-12-20T01:35:40;0.30;;;0.30;;
63193;SDS011;49289;51.670;5.624;2022-12-20T01:37:28;0.30;;;0.30;;
63193;SDS011;49289;51.670;5.624;2022-12-20T01:39:16;0.30;;;0.30;;
63193;SDS011;49289;51.670;5.624;2022-12-20T01:41:05;0.30;;;0.30;;
63193;SDS011;49289;51.670;5.624;2022-12-20T01:42:52;0.50;;;0.50;;
63193;SDS011;49289;51.670;5.624;2022-12-20T01:44:56;0.30;;;0.30;;
63193;SDS011;49289;51.670;5.624;2022-12-20T01:46:44;0.30;;;0.30;;
63193;SDS011;49289;51.670;5.624;2022-12-20T01:48:31;0.40;;;0.40;;
63193;SDS011;49289;51.670;5.624;2022-12-20T01:50:19;0.40;;;0.40;;
63193;SDS011;49289;51.670;5.624;2022-12-20T01:52:08;0.50;;;0.50;;
63193;SDS011;49289;51.670;5.624;2022-12-20T01:53:57;0.50;;;0.50;;
63193;SDS011;49289;51.670;5.624;2022-12-20T01:55:44;0.30;;;0.30;;
63193;SDS011;49289;51.670;5.624;2022-12-20T01:57:33;0.30;;;0.30;;
63193;SDS011;49289;51.670;5.624;2022-12-20T01:59:19;0.40;;;0.40;;
63193;SDS011;49289;51.670;5.624;2022-12-20T02:01:06;0.40;;;0.40;;
63193;SDS011;49289;51.670;5.624;2022-12-20T02:02:53;0.30;;;0.30;;
63193;SDS011;49289;51.670;5.624;2022-12-20T02:04:40;0.30;;;0.30;;
63193;SDS011;49289;51.670;5.624;2022-12-20T02:06:27;0.30;;;0.30;;
63193;SDS011;49289;51.670;5.624;2022-12-20T02:08:16;0.30;;;0.30;;
63193;SDS011;49289;51.670;5.624;2022-12-20T02:10:03;0.30;;;0.30;;
63193;SDS011;49289;51.670;5.624;2022-12-20T02:11:58;0.20;;;0.20;;
63193;SDS011;49289;51.670;5.624;2022-12-20T02:13:46;0.20;;;0.20;;
63193;SDS011;49289;51.670;5.624;2022-12-20T02:15:38;0.20;;;0.20;;
63193;SDS011;49289;51.670;5.624;2022-12-20T02:17:27;0.20;;;0.20;;
63193;SDS011;49289;51.670;5.624;2022-12-20T02:19:14;0.20;;;0.20;;
63193;SDS011;49289;51.670;5.624;2022-12-20T02:23:20;0.20;;;0.20;;
63193;SDS011;49289;51.670;5.624;2022-12-20T02:25:28;0.30;;;0.30;;
63193;SDS011;49289;51.670;5.624;2022-12-20T02:27:33;0.60;;;0.60;;
63193;SDS011;49289;51.670;5.624;2022-12-20T02:29:30;0.30;;;0.30;;
63193;SDS011;49289;51.670;5.624;2022-12-20T02:31:18;0.40;;;0.40;;
63193;SDS011;49289;51.670;5.624;2022-12-20T02:33:05;0.40;;;0.40;;
63193;SDS011;49289;51.670;5.624;2022-12-20T02:34:51;0.30;;;0.30;;
63193;SDS011;49289;51.670;5.624;2022-12-20T02:36:39;0.40;;;0.40;;
63193;SDS011;49289;51.670;5.624;2022-12-20T02:38:32;0.30;;;0.30;;
63193;SDS011;49289;51.670;5.624;2022-12-20T02:40:18;0.30;;;0.30;;
63193;SDS011;49289;51.670;5.624;2022-12-20T02:42:08;0.20;;;0.20;;
63193;SDS011;49289;51.670;5.624;2022-12-20T02:43:56;0.20;;;0.20;;
63193;SDS011;49289;51.670;5.624;2022-12-20T02:45:43;0.30;;;0.30;;
63193;SDS011;49289;51.670;5.624;2022-12-20T02:47:32;0.30;;;0.30;;
63193;SDS011;49289;51.670;5.624;2022-12-20T02:49:20;0.20;;;0.20;;
63193;SDS011;49289;51.670;5.624;2022-12-20T02:51:07;0.20;;;0.20;;
63193;SDS011;49289;51.670;5.624;2022-12-20T02:52:54;0.20;;;0.20;;
63193;SDS011;49289;51.670;5.624;2022-12-20T02:54:41;0.30;;;0.30;;
63193;SDS011;49289;51.670;5.624;2022-12-20T02:56:30;0.20;;;0.20;;
63193;SDS011;49289;51.670;5.624;2022-12-20T02:58:17;0.30;;;0.30;;
63193;SDS011;49289;51.670;5.624;2022-12-20T03:00:06;0.20;;;0.20;;
63193;SDS011;49289;51.670;5.624;2022-12-20T03:01:54;0.30;;;0.30;;
63193;SDS011;49289;51.670;5.624;2022-12-20T03:03:40;0.20;;;0.20;;
63193;SDS011;49289;51.670;5.624;2022-12-20T03:05:27;0.20;;;0.20;;
63193;SDS011;49289;51.670;5.624;2022-12-20T03:07:14;0.30;;;0.30;;
63193;SDS011;49289;51.670;5.624;2022-12-20T03:09:01;0.30;;;0.30;;
63193;SDS011;49289;51.670;5.624;2022-12-20T03:10:49;0.20;;;0.20;;
63193;SDS011;49289;51.670;5.624;2022-12-20T03:12:35;0.30;;;0.30;;
63193;SDS011;49289;51.670;5.624;2022-12-20T03:14:23;0.30;;;0.30;;
63193;SDS011;49289;51.670;5.624;2022-12-20T03:16:12;0.30;;;0.30;;
63193;SDS011;49289;51.670;5.624;2022-12-20T03:18:00;0.30;;;0.30;;
63193;SDS011;49289;51.670;5.624;2022-12-20T03:19:48;0.30;;;0.30;;
63193;SDS011;49289;51.670;5.624;2022-12-20T03:21:36;0.30;;;0.30;;
63193;SDS011;49289;51.670;5.624;2022-12-20T03:23:24;0.20;;;0.20;;
63193;SDS011;49289;51.670;5.624;2022-12-20T03:25:12;0.30;;;0.30;;
63193;SDS011;49289;51.670;5.624;2022-12-20T03:27:01;0.20;;;0.20;;
63193;SDS011;49289;51.670;5.624;2022-12-20T03:28:49;0.30;;;0.30;;
63193;SDS011;49289;51.670;5.624;2022-12-20T03:30:37;0.30;;;0.30;;
63193;SDS011;49289;51.670;5.624;2022-12-20T03:32:25;0.40;;;0.40;;
63193;SDS011;49289;51.670;5.624;2022-12-20T03:34:12;0.30;;;0.30;;
63193;SDS011;49289;51.670;5.624;2022-12-20T03:35:59;0.30;;;0.30;;
63193;SDS011;49289;51.670;5.624;2022-12-20T03:37:46;0.30;;;0.30;;
63193;SDS011;49289;51.670;5.624;2022-12-20T03:39:33;0.30;;;0.30;;
63193;SDS011;49289;51.670;5.624;2022-12-20T03:41:20;0.30;;;0.30;;
63193;SDS011;49289;51.670;5.624;2022-12-20T03:43:07;0.40;;;0.40;;
63193;SDS011;49289;51.670;5.624;2022-12-20T03:44:54;0.40;;;0.40;;
63193;SDS011;49289;51.670;5.624;2022-12-20T03:46:41;0.40;;;0.40;;
63193;SDS011;49289;51.670;5.624;2022-12-20T03:48:28;0.50;;;0.50;;
63193;SDS011;49289;51.670;5.624;2022-12-20T03:50:15;0.30;;;0.30;;
63193;SDS011;49289;51.670;5.624;2022-12-20T03:52:04;0.40;;;0.40;;
63193;SDS011;49289;51.670;5.624;2022-12-20T03:53:52;0.40;;;0.40;;
63193;SDS011;49289;51.670;5.624;2022-12-20T03:55:40;0.30;;;0.30;;
63193;SDS011;49289;51.670;5.624;2022-12-20T03:57:28;0.40;;;0.40;;
63193;SDS011;49289;51.670;5.624;2022-12-20T03:59:16;0.30;;;0.30;;
63193;SDS011;49289;51.670;5.624;2022-12-20T04:01:07;0.40;;;0.40;;
63193;SDS011;49289;51.670;5.624;2022-12-20T04:03:02;0.30;;;0.30;;
63193;SDS011;49289;51.670;5.624;2022-12-20T04:04:50;0.30;;;0.30;;
63193;SDS011;49289;51.670;5.624;2022-12-20T04:06:38;0.30;;;0.30;;
63193;SDS011;49289;51.670;5.624;2022-12-20T04:08:26;0.40;;;0.40;;
63193;SDS011;49289;51.670;5.624;2022-12-20T04:10:14;1.20;;;0.80;;
63193;SDS011;49289;51.670;5.624;2022-12-20T04:12:01;0.30;;;0.30;;
63193;SDS011;49289;51.670;5.624;2022-12-20T04:13:49;0.40;;;0.40;;
63193;SDS011;49289;51.670;5.624;2022-12-20T04:15:37;0.30;;;0.30;;
63193;SDS011;49289;51.670;5.624;2022-12-20T04:17:25;0.30;;;0.30;;
63193;SDS011;49289;51.670;5.624;2022-12-20T04:19:13;0.20;;;0.20;;
63193;SDS011;49289;51.670;5.624;2022-12-20T04:21:01;0.30;;;0.30;;
63193;SDS011;49289;51.670;5.624;2022-12-20T04:22:49;0.30;;;0.30;;
63193;SDS011;49289;51.670;5.624;2022-12-20T04:24:35;0.20;;;0.20;;
63193;SDS011;49289;51.670;5.624;2022-12-20T04:26:24;0.20;;;0.20;;
63193;SDS011;49289;51.670;5.624;2022-12-20T04:28:13;0.20;;;0.20;;
63193;SDS011;49289;51.670;5.624;2022-12-20T04:30:03;0.20;;;0.20;;
63193;SDS011;49289;51.670;5.624;2022-12-20T04:31:55;0.20;;;0.20;;
63193;SDS011;49289;51.670;5.624;2022-12-20T04:33:43;0.50;;;0.50;;
63193;SDS011;49289;51.670;5.624;2022-12-20T04:35:31;0.20;;;0.20;;
63193;SDS011;49289;51.670;5.624;2022-12-20T04:37:19;0.30;;;0.30;;
63193;SDS011;49289;51.670;5.624;2022-12-20T04:39:09;0.20;;;0.20;;
63193;SDS011;49289;51.670;5.624;2022-12-20T04:40:59;0.50;;;0.50;;
63193;SDS011;49289;51.670;5.624;2022-12-20T04:42:46;0.30;;;0.30;;
63193;SDS011;49289;51.670;5.624;2022-12-20T04:44:34;0.30;;;0.30;;
63193;SDS011;49289;51.670;5.624;2022-12-20T04:46:21;0.30;;;0.30;;
63193;SDS011;49289;51.670;5.624;2022-12-20T04:48:08;0.40;;;0.40;;
63193;SDS011;49289;51.670;5.624;2022-12-20T04:49:55;0.40;;;0.40;;
63193;SDS011;49289;51.670;5.624;2022-12-20T04:51:42;0.30;;;0.30;;
63193;SDS011;49289;51.670;5.624;2022-12-20T04:53:29;0.30;;;0.30;;
63193;SDS011;49289;51.670;5.624;2022-12-20T04:55:17;0.40;;;0.40;;
63193;SDS011;49289;51.670;5.624;2022-12-20T04:56:50;0.40;;;0.40;;
63193;SDS011;49289;51.670;5.624;2022-12-20T04:58:39;0.30;;;0.30;;
63193;SDS011;49289;51.670;5.624;2022-12-20T05:00:27;0.40;;;0.40;;
63193;SDS011;49289;51.670;5.624;2022-12-20T05:02:15;0.30;;;0.30;;
63193;SDS011;49289;51.670;5.624;2022-12-20T05:04:03;0.30;;;0.30;;
63193;SDS011;49289;51.670;5.624;2022-12-20T05:05:51;0.30;;;0.30;;
63193;SDS011;49289;51.670;5.624;2022-12-20T05:07:38;0.30;;;0.30;;
63193;SDS011;49289;51.670;5.624;2022-12-20T05:09:25;0.30;;;0.30;;
63193;SDS011;49289;51.670;5.624;2022-12-20T05:11:12;0.20;;;0.20;;
63193;SDS011;49289;51.670;5.624;2022-12-20T05:12:59;0.20;;;0.20;;
63193;SDS011;49289;51.670;5.624;2022-12-20T05:14:47;0.20;;;0.20;;
63193;SDS011;49289;51.670;5.624;2022-12-20T05:16:36;0.20;;;0.20;;
63193;SDS011;49289;51.670;5.624;2022-12-20T05:18:24;0.20;;;0.20;;
63193;SDS011;49289;51.670;5.624;2022-12-20T05:20:13;0.20;;;0.20;;
63193;SDS011;49289;51.670;5.624;2022-12-20T05:22:00;0.40;;;0.40;;
63193;SDS011;49289;51.670;5.624;2022-12-20T05:23:48;0.20;;;0.20;;
63193;SDS011;49289;51.670;5.624;2022-12-20T05:25:36;0.20;;;0.20;;
63193;SDS011;49289;51.670;5.624;2022-12-20T05:27:25;0.20;;;0.20;;
63193;SDS011;49289;51.670;5.624;2022-12-20T05:29:13;0.30;;;0.30;;
63193;SDS011;49289;51.670;5.624;2022-12-20T05:31:01;0.30;;;0.30;;
63193;SDS011;49289;51.670;5.624;2022-12-20T05:32:49;0.30;;;0.30;;
63193;SDS011;49289;51.670;5.624;2022-12-20T05:34:37;0.30;;;0.30;;
63193;SDS011;49289;51.670;5.624;2022-12-20T05:36:25;0.30;;;0.30;;
63193;SDS011;49289;51.670;5.624;2022-12-20T05:38:13;0.30;;;0.30;;
63193;SDS011;49289;51.670;5.624;2022-12-20T05:40:01;0.40;;;0.40;;
63193;SDS011;49289;51.670;5.624;2022-12-20T05:41:49;0.30;;;0.30;;
63193;SDS011;49289;51.670;5.624;2022-12-20T05:43:37;0.30;;;0.30;;
63193;SDS011;49289;51.670;5.624;2022-12-20T05:45:25;0.40;;;0.40;;
63193;SDS011;49289;51.670;5.624;2022-12-20T05:47:14;0.30;;;0.30;;
63193;SDS011;49289;51.670;5.624;2022-12-20T05:49:02;0.30;;;0.30;;
63193;SDS011;49289;51.670;5.624;2022-12-20T05:50:50;0.30;;;0.30;;
63193;SDS011;49289;51.670;5.624;2022-12-20T05:52:38;0.30;;;0.30;;
63193;SDS011;49289;51.670;5.624;2022-12-20T05:54:25;0.30;;;0.30;;
63193;SDS011;49289;51.670;5.624;2022-12-20T05:56:15;0.30;;;0.30;;
63193;SDS011;49289;51.670;5.624;2022-12-20T05:58:03;0.20;;;0.20;;
63193;SDS011;49289;51.670;5.624;2022-12-20T05:59:51;0.20;;;0.20;;
63193;SDS011;49289;51.670;5.624;2022-12-20T06:01:39;0.30;;;0.30;;
63193;SDS011;49289;51.670;5.624;2022-12-20T06:03:28;0.30;;;0.30;;
63193;SDS011;49289;51.670;5.624;2022-12-20T06:05:16;0.30;;;0.30;;
63193;SDS011;49289;51.670;5.624;2022-12-20T06:07:04;0.30;;;0.30;;
63193;SDS011;49289;51.670;5.624;2022-12-20T06:08:51;0.40;;;0.40;;
63193;SDS011;49289;51.670;5.624;2022-12-20T06:10:38;0.20;;;0.20;;
63193;SDS011;49289;51.670;5.624;2022-12-20T06:12:25;0.40;;;0.40;;
63193;SDS011;49289;51.670;5.624;2022-12-20T06:14:12;0.20;;;0.20;;
63193;SDS011;49289;51.670;5.624;2022-12-20T06:16:00;0.30;;;0.30;;
63193;SDS011;49289;51.670;5.624;2022-12-20T06:17:48;0.40;;;0.40;;
63193;SDS011;49289;51.670;5.624;2022-12-20T06:19:35;0.40;;;0.40;;
63193;SDS011;49289;51.670;5.624;2022-12-20T06:21:22;0.40;;;0.40;;
63193;SDS011;49289;51.670;5.624;2022-12-20T06:23:09;0.30;;;0.30;;
63193;SDS011;49289;51.670;5.624;2022-12-20T06:24:58;0.30;;;0.30;;
63193;SDS011;49289;51.670;5.624;2022-12-20T06:26:46;0.20;;;0.20;;
63193;SDS011;49289;51.670;5.624;2022-12-20T06:28:34;0.30;;;0.30;;
63193;SDS011;49289;51.670;5.624;2022-12-20T06:30:06;0.20;;;0.20;;
63193;SDS011;49289;51.670;5.624;2022-12-20T06:31:55;0.30;;;0.30;;
63193;SDS011;49289;51.670;5.624;2022-12-20T06:33:42;0.20;;;0.20;;
63193;SDS011;49289;51.670;5.624;2022-12-20T06:35:29;0.20;;;0.20;;
63193;SDS011;49289;51.670;5.624;2022-12-20T06:37:17;0.30;;;0.30;;
63193;SDS011;49289;51.670;5.624;2022-12-20T06:39:06;0.20;;;0.20;;
63193;SDS011;49289;51.670;5.624;2022-12-20T06:40:54;0.20;;;0.20;;
63193;SDS011;49289;51.670;5.624;2022-12-20T06:42:42;0.40;;;0.40;;
63193;SDS011;49289;51.670;5.624;2022-12-20T06:44:30;0.30;;;0.30;;
63193;SDS011;49289;51.670;5.624;2022-12-20T06:46:20;0.40;;;0.40;;
63193;SDS011;49289;51.670;5.624;2022-12-20T06:48:08;0.40;;;0.40;;
63193;SDS011;49289;51.670;5.624;2022-12-20T06:49:57;0.40;;;0.40;;
63193;SDS011;49289;51.670;5.624;2022-12-20T06:51:44;0.40;;;0.40;;
63193;SDS011;49289;51.670;5.624;2022-12-20T06:53:31;0.40;;;0.40;;
63193;SDS011;49289;51.670;5.624;2022-12-20T06:55:20;0.30;;;0.30;;
63193;SDS011;49289;51.670;5.624;2022-12-20T06:57:07;0.40;;;0.40;;
63193;SDS011;49289;51.670;5.624;2022-12-20T06:58:54;0.50;;;0.50;;
63193;SDS011;49289;51.670;5.624;2022-12-20T07:00:41;0.40;;;0.40;;
63193;SDS011;49289;51.670;5.624;2022-12-20T07:02:29;0.40;;;0.40;;
63193;SDS011;49289;51.670;5.624;2022-12-20T07:04:18;0.40;;;0.40;;
63193;SDS011;49289;51.670;5.624;2022-12-20T07:06:06;0.30;;;0.30;;
63193;SDS011;49289;51.670;5.624;2022-12-20T07:07:54;0.40;;;0.40;;
63193;SDS011;49289;51.670;5.624;2022-12-20T07:09:41;2.80;;;2.00;;
63193;SDS011;49289;51.670;5.624;2022-12-20T07:11:28;3.30;;;2.10;;
63193;SDS011;49289;51.670;5.624;2022-12-20T07:13:15;3.20;;;2.20;;
63193;SDS011;49289;51.670;5.624;2022-12-20T07:15:03;2.30;;;2.00;;
63193;SDS011;49289;51.670;5.624;2022-12-20T07:16:52;4.10;;;2.20;;
63193;SDS011;49289;51.670;5.624;2022-12-20T07:18:41;2.00;;;1.80;;
63193;SDS011;49289;51.670;5.624;2022-12-20T07:20:29;4.20;;;2.10;;
63193;SDS011;49289;51.670;5.624;2022-12-20T07:22:16;3.60;;;2.00;;
63193;SDS011;49289;51.670;5.624;2022-12-20T07:24:03;3.70;;;1.90;;
63193;SDS011;49289;51.670;5.624;2022-12-20T07:25:58;2.30;;;1.80;;
63193;SDS011;49289;51.670;5.624;2022-12-20T07:27:47;2.60;;;1.70;;
63193;SDS011;49289;51.670;5.624;2022-12-20T07:29:35;2.70;;;1.90;;
63193;SDS011;49289;51.670;5.624;2022-12-20T07:31:22;3.30;;;1.80;;
63193;SDS011;49289;51.670;5.624;2022-12-20T07:33:09;1.70;;;1.60;;
63193;SDS011;49289;51.670;5.624;2022-12-20T07:34:57;2.40;;;1.70;;
63193;SDS011;49289;51.670;5.624;2022-12-20T07:36:45;2.10;;;1.80;;
63193;SDS011;49289;51.670;5.624;2022-12-20T07:38:34;2.80;;;1.60;;
63193;SDS011;49289;51.670;5.624;2022-12-20T07:40:22;2.00;;;1.60;;
63193;SDS011;49289;51.670;5.624;2022-12-20T07:42:09;3.70;;;1.80;;
63193;SDS011;49289;51.670;5.624;2022-12-20T07:43:41;2.30;;;1.80;;
63193;SDS011;49289;51.670;5.624;2022-12-20T07:45:29;2.80;;;1.70;;
63193;SDS011;49289;51.670;5.624;2022-12-20T07:47:18;3.10;;;1.70;;
63193;SDS011;49289;51.670;5.624;2022-12-20T07:49:05;1.80;;;1.70;;
63193;SDS011;49289;51.670;5.624;2022-12-20T07:50:52;2.70;;;1.70;;
63193;SDS011;49289;51.670;5.624;2022-12-20T07:52:39;2.50;;;1.80;;
63193;SDS011;49289;51.670;5.624;2022-12-20T07:54:29;3.70;;;2.00;;
63193;SDS011;49289;51.670;5.624;2022-12-20T07:56:15;3.50;;;2.10;;
63193;SDS011;49289;51.670;5.624;2022-12-20T07:58:05;3.60;;;1.70;;
63193;SDS011;49289;51.670;5.624;2022-12-20T07:59:53;2.10;;;1.50;;
63193;SDS011;49289;51.670;5.624;2022-12-20T08:01:38;3.10;;;1.70;;
63193;SDS011;49289;51.670;5.624;2022-12-20T08:03:27;1.80;;;1.50;;
63193;SDS011;49289;51.670;5.624;2022-12-20T08:05:15;2.60;;;1.50;;
63193;SDS011;49289;51.670;5.624;2022-12-20T08:07:02;4.30;;;1.70;;
63193;SDS011;49289;51.670;5.624;2022-12-20T08:08:50;3.80;;;1.60;;
63193;SDS011;49289;51.670;5.624;2022-12-20T08:10:36;2.30;;;1.50;;
63193;SDS011;49289;51.670;5.624;2022-12-20T08:12:24;2.10;;;1.50;;
63193;SDS011;49289;51.670;5.624;2022-12-20T08:14:13;1.60;;;1.50;;
63193;SDS011;49289;51.670;5.624;2022-12-20T08:16:01;1.70;;;1.50;;
63193;SDS011;49289;51.670;5.624;2022-12-20T08:17:49;2.00;;;1.60;;
63193;SDS011;49289;51.670;5.624;2022-12-20T08:19:38;2.30;;;1.40;;
63193;SDS011;49289;51.670;5.624;2022-12-20T08:21:26;4.80;;;1.70;;
63193;SDS011;49289;51.670;5.624;2022-12-20T08:23:13;2.70;;;1.90;;
63193;SDS011;49289;51.670;5.624;2022-12-20T08:25:00;3.00;;;1.70;;
63193;SDS011;49289;51.670;5.624;2022-12-20T08:26:47;3.10;;;1.80;;
63193;SDS011;49289;51.670;5.624;2022-12-20T08:28:36;2.20;;;1.60;;
63193;SDS011;49289;51.670;5.624;2022-12-20T08:30:24;3.40;;;1.70;;
63193;SDS011;49289;51.670;5.624;2022-12-20T08:32:11;2.70;;;1.80;;
63193;SDS011;49289;51.670;5.624;2022-12-20T08:33:58;3.20;;;2.00;;
63193;SDS011;49289;51.670;5.624;2022-12-20T08:35:47;2.50;;;1.80;;
63193;SDS011;49289;51.670;5.624;2022-12-20T08:37:41;4.30;;;2.00;;
63193;SDS011;49289;51.670;5.624;2022-12-20T08:39:28;3.20;;;1.70;;
63193;SDS011;49289;51.670;5.624;2022-12-20T08:41:16;3.10;;;1.70;;
63193;SDS011;49289;51.670;5.624;2022-12-20T08:43:05;4.70;;;1.80;;
63193;SDS011;49289;51.670;5.624;2022-12-20T08:44:52;2.60;;;1.70;;
63193;SDS011;49289;51.670;5.624;2022-12-20T08:46:39;3.10;;;1.70;;
63193;SDS011;49289;51.670;5.624;2022-12-20T08:48:27;3.70;;;1.80;;
63193;SDS011;49289;51.670;5.624;2022-12-20T08:50:16;5.50;;;2.00;;
63193;SDS011;49289;51.670;5.624;2022-12-20T08:52:03;3.70;;;1.90;;
63193;SDS011;49289;51.670;5.624;2022-12-20T08:53:51;2.50;;;2.00;;
63193;SDS011;49289;51.670;5.624;2022-12-20T08:55:40;3.60;;;1.90;;
63193;SDS011;49289;51.670;5.624;2022-12-20T08:57:27;3.20;;;1.90;;
63193;SDS011;49289;51.670;5.624;2022-12-20T08:59:14;3.20;;;2.10;;
63193;SDS011;49289;51.670;5.624;2022-12-20T09:01:03;3.30;;;2.00;;
63193;SDS011;49289;51.670;5.624;2022-12-20T09:02:50;2.90;;;1.90;;
63193;SDS011;49289;51.670;5.624;2022-12-20T09:04:39;3.80;;;2.00;;
63193;SDS011;49289;51.670;5.624;2022-12-20T09:06:26;2.20;;;2.00;;
63193;SDS011;49289;51.670;5.624;2022-12-20T09:07:58;3.30;;;2.10;;
63193;SDS011;49289;51.670;5.624;2022-12-20T09:09:46;4.10;;;2.00;;
63193;SDS011;49289;51.670;5.624;2022-12-20T09:11:35;3.10;;;2.00;;
63193;SDS011;49289;51.670;5.624;2022-12-20T09:13:22;3.60;;;2.00;;
63193;SDS011;49289;51.670;5.624;2022-12-20T09:15:10;4.80;;;2.20;;
63193;SDS011;49289;51.670;5.624;2022-12-20T09:16:57;3.90;;;2.40;;
63193;SDS011;49289;51.670;5.624;2022-12-20T09:18:46;3.70;;;2.30;;
63193;SDS011;49289;51.670;5.624;2022-12-20T09:20:33;3.50;;;2.30;;
63193;SDS011;49289;51.670;5.624;2022-12-20T09:22:22;2.80;;;2.40;;
63193;SDS011;49289;51.670;5.624;2022-12-20T09:24:09;4.40;;;2.20;;
63193;SDS011;49289;51.670;5.624;2022-12-20T09:25:56;3.80;;;2.20;;
63193;SDS011;49289;51.670;5.624;2022-12-20T09:27:46;2.70;;;2.10;;
63193;SDS011;49289;51.670;5.624;2022-12-20T09:29:35;3.30;;;2.20;;
63193;SDS011;49289;51.670;5.624;2022-12-20T09:31:23;3.80;;;2.20;;
63193;SDS011;49289;51.670;5.624;2022-12-20T09:33:11;2.50;;;2.30;;
63193;SDS011;49289;51.670;5.624;2022-12-20T09:34:58;6.90;;;2.30;;
63193;SDS011;49289;51.670;5.624;2022-12-20T09:36:46;3.20;;;2.20;;
63193;SDS011;49289;51.670;5.624;2022-12-20T09:38:35;3.50;;;2.20;;
63193;SDS011;49289;51.670;5.624;2022-12-20T09:40:24;4.10;;;2.40;;
63193;SDS011;49289;51.670;5.624;2022-12-20T09:42:12;3.00;;;2.20;;
63193;SDS011;49289;51.670;5.624;2022-12-20T09:44:03;6.00;;;2.30;;
63193;SDS011;49289;51.670;5.624;2022-12-20T09:45:50;3.70;;;2.20;;
63193;SDS011;49289;51.670;5.624;2022-12-20T09:47:40;3.60;;;2.20;;
63193;SDS011;49289;51.670;5.624;2022-12-20T09:49:27;5.30;;;2.00;;
63193;SDS011;49289;51.670;5.624;2022-12-20T09:51:17;3.20;;;2.00;;
63193;SDS011;49289;51.670;5.624;2022-12-20T09:53:08;3.50;;;2.30;;
63193;SDS011;49289;51.670;5.624;2022-12-20T09:55:00;4.50;;;2.20;;
63193;SDS011;49289;51.670;5.624;2022-12-20T09:56:49;4.10;;;2.10;;
63193;SDS011;49289;51.670;5.624;2022-12-20T09:58:40;2.70;;;2.00;;
63193;SDS011;49289;51.670;5.624;2022-12-20T10:00:29;4.40;;;2.20;;
63193;SDS011;49289;51.670;5.624;2022-12-20T10:02:19;4.50;;;2.30;;
63193;SDS011;49289;51.670;5.624;2022-12-20T10:04:11;3.10;;;2.10;;
63193;SDS011;49289;51.670;5.624;2022-12-20T10:05:59;3.60;;;2.10;;
63193;SDS011;49289;51.670;5.624;2022-12-20T10:07:47;3.20;;;2.00;;
63193;SDS011;49289;51.670;5.624;2022-12-20T10:09:45;2.70;;;2.00;;
63193;SDS011;49289;51.670;5.624;2022-12-20T10:11:43;4.10;;;2.20;;
63193;SDS011;49289;51.670;5.624;2022-12-20T10:13:41;3.40;;;2.20;;
63193;SDS011;49289;51.670;5.624;2022-12-20T10:15:32;2.90;;;2.10;;
63193;SDS011;49289;51.670;5.624;2022-12-20T10:17:21;4.30;;;2.20;;
63193;SDS011;49289;51.670;5.624;2022-12-20T10:19:11;2.40;;;1.90;;
63193;SDS011;49289;51.670;5.624;2022-12-20T10:21:01;2.00;;;1.90;;
63193;SDS011;49289;51.670;5.624;2022-12-20T10:22:49;4.00;;;2.10;;
63193;SDS011;49289;51.670;5.624;2022-12-20T10:24:36;6.10;;;2.20;;
63193;SDS011;49289;51.670;5.624;2022-12-20T10:26:25;3.80;;;2.00;;
63193;SDS011;49289;51.670;5.624;2022-12-20T10:28:15;2.40;;;2.00;;
63193;SDS011;49289;51.670;5.624;2022-12-20T10:30:04;2.70;;;1.90;;
63193;SDS011;49289;51.670;5.624;2022-12-20T10:31:57;2.60;;;1.90;;
63193;SDS011;49289;51.670;5.624;2022-12-20T10:33:43;2.70;;;1.90;;
63193;SDS011;49289;51.670;5.624;2022-12-20T10:35:32;3.40;;;2.10;;
63193;SDS011;49289;51.670;5.624;2022-12-20T10:37:18;2.40;;;1.90;;
63193;SDS011;49289;51.670;5.624;2022-12-20T10:39:07;3.20;;;2.10;;
63193;SDS011;49289;51.670;5.624;2022-12-20T10:41:03;3.60;;;1.90;;
63193;SDS011;49289;51.670;5.624;2022-12-20T10:42:52;3.40;;;2.10;;
63193;SDS011;49289;51.670;5.624;2022-12-20T10:44:41;3.30;;;2.00;;
63193;SDS011;49289;51.670;5.624;2022-12-20T10:46:30;3.80;;;2.10;;
63193;SDS011;49289;51.670;5.624;2022-12-20T10:50:28;2.50;;;2.10;;
63193;SDS011;49289;51.670;5.624;2022-12-20T10:52:16;3.10;;;2.20;;
63193;SDS011;49289;51.670;5.624;2022-12-20T10:54:10;2.90;;;1.90;;
63193;SDS011;49289;51.670;5.624;2022-12-20T10:55:52;5.10;;;2.40;;